Saint Charles, MO (63303)

5:08 AM CST on November 23, 2014 (GMT -0600)
Wilshire Valley | Change Station
CLOSE
Current Station
Personal Weather Station
Location: St. Charles, MO
Elevation: 617 ft
Nearby Weather Stations

Elev 617 ft 38.76 °N, 90.56 °W | Updated 8 minutes ago

Overcast
Overcast
53.8 °F
Feels Like 53.8 °F
N
7.0
Wind Variable Wind from SSW
Gusts 8.0 mph

Today
High -- | Low -- °F
--% Chance of Precip.
Yesterday
High -- | Low -- °F
Precip. -- in
6:53 AM 4:43 PM
New Moon, 1% visible
Pressure 29.73 in
Visibility 10.0 miles
Clouds Overcast 10000 ft
Dew Point 41 °F
Humidity 61%
Rainfall 0.00 in
Snow Depth Not available.
UV 0 out of 12
Pollen 2.00 out of 12
Air Quality Not available.
Flu Activity Not available.
METAR KSUS 231054Z AUTO 17009G16KT 10SM OVC100 12/08 A2973 RMK AO2 SLP067 T01220078

More Conditions Fewer Conditions

Pressure 29.73 in
Visibility 10.0 miles
Clouds Overcast 10000 ft
Dew Point 41 °F
Humidity 61%
Rainfall 0.00 in
Snow Depth Not available.
UV 0 out of 12
Pollen 2.00 out of 12
Air Quality Not available.
Flu Activity Not available.
METAR KSUS 231054Z AUTO 17009G16KT 10SM OVC100 12/08 A2973 RMK AO2 SLP067 T01220078

More Conditions Fewer Conditions

10-Day Weather Forecast

Almanac

Astronomy

Nov. 23, 2014 Rise Set
Actual Time
Civil Twilight
Nautical Twilight
Astronomical Twilight
Moon
Length of Visible Light
Length of Day
Tomorrow will be .
, % of the Moon is Illuminated

Today's Extremes

State Highs State Lows

Community

WunderPhotos

Upload Photos

1,773,033 photos uploaded!

WunderBlogs® & News

Nearby

Air Quality

  Air Quality AQ Index Pollutant
Not available.

Snow Depth

Station Depth Elevation

Earthquake Activity

City Distance Mag. Time & Date
Minimum magnitude displayed is 2.5.

Coastal Water Temperatures

Place Temperature

Nearby Weather Stations